Time;durP1;ratioP1;P1;durP2;ratioP2;P2;SDS_P1;SDS_P2;PMS_P1;PMS_P2;Temp;Humidity;BMP_temperature;BMP_pressure;BME280_temperature;BME280_humidity;BME280_pressure;Samples;Min_cycle;Max_cycle;Signal;HPM_P1;HPM_P2
2021/10/12 00:02:54;;;;;;;4.05;0.90;;;;;;;11.79;100.00;101044.91;6299146;22;20347;-48
2021/10/12 00:05:58;;;;;;;1.30;0.63;;;;;;;11.84;100.00;101044.31;6298462;22;20022;-48
2021/10/12 00:09:02;;;;;;;6.80;0.55;;;;;;;11.89;100.00;101038.13;6297328;22;20017;-48
2021/10/12 00:12:06;;;;;;;0.32;0.30;;;;;;;11.88;100.00;101036.59;6298040;22;20095;-48
2021/10/12 00:15:10;;;;;;;0.50;0.32;;;;;;;11.88;100.00;101039.38;6297497;22;20401;-48
2021/10/12 00:18:13;;;;;;;12.52;1.50;;;;;;;11.89;100.00;101043.72;6297276;22;20076;-48
2021/10/12 00:21:17;;;;;;;6.13;0.28;;;;;;;11.87;100.00;101035.03;6296925;22;20018;-48
2021/10/12 00:24:20;;;;;;;1.98;0.38;;;;;;;11.84;100.00;101029.59;6296351;22;20080;-48
2021/10/12 00:27:23;;;;;;;1.60;0.90;;;;;;;11.84;100.00;101044.31;6296577;22;20257;-49
2021/10/12 00:30:26;;;;;;;0.73;0.43;;;;;;;11.83;100.00;101033.59;6296582;22;20297;-48
2021/10/12 00:33:31;;;;;;;8.55;1.40;;;;;;;11.84;100.00;101019.19;6296419;22;20080;-48
2021/10/12 00:36:34;;;;;;;4.85;0.50;;;;;;;11.83;100.00;101017.63;6296821;22;20494;-48
2021/10/12 00:39:38;;;;;;;0.20;0.20;;;;;;;11.80;100.00;101021.31;6296270;22;20021;-48
2021/10/12 00:42:41;;;;;;;3.13;0.45;;;;;;;11.76;100.00;101022.72;6293442;22;20106;-48
2021/10/12 00:45:44;;;;;;;1.55;0.50;;;;;;;11.71;100.00;101012.13;6293340;22;20029;-48
2021/10/12 00:48:48;;;;;;;1.10;1.05;;;;;;;11.70;100.00;101008.56;6294617;22;20400;-48
2021/10/12 00:51:52;;;;;;;3.53;1.10;;;;;;;11.64;100.00;101015.94;6294331;22;20489;-48
2021/10/12 00:54:55;;;;;;;0.25;0.25;;;;;;;11.63;100.00;101014.34;6293335;22;20090;-48
2021/10/12 00:57:58;;;;;;;0.73;0.50;;;;;;;11.63;100.00;101003.19;6293074;22;20017;-48
2021/10/12 01:01:01;;;;;;;0.50;0.50;;;;;;;11.62;100.00;100996.06;6294981;22;20376;-48
2021/10/12 01:04:10;;;;;;;1.02;0.55;;;;;;;11.59;100.00;100990.59;6296186;22;20027;-48
2021/10/12 01:07:13;;;;;;;3.42;0.40;;;;;;;11.56;100.00;101005.47;6297462;22;20738;-48
2021/10/12 01:10:17;;;;;;;0.20;0.20;;;;;;;11.57;100.00;101007.03;6297390;22;20021;-48
2021/10/12 01:13:21;;;;;;;0.57;0.30;;;;;;;11.61;100.00;101007.69;6298562;22;20103;-48
2021/10/12 01:16:24;;;;;;;14.55;0.70;;;;;;;11.67;100.00;101006.69;6299464;22;20042;-48
2021/10/12 01:19:27;;;;;;;0.30;0.20;;;;;;;11.73;100.00;100993.69;6299309;22;20018;-48
2021/10/12 01:22:30;;;;;;;1.13;0.38;;;;;;;11.81;100.00;100991.41;6296128;22;20519;-48
2021/10/12 01:25:34;;;;;;;0.65;0.40;;;;;;;11.74;100.00;100974.91;6294970;22;20029;-48
2021/10/12 01:28:37;;;;;;;2.00;0.45;;;;;;;11.71;100.00;100985.00;6294943;22;20017;-48
2021/10/12 01:31:40;;;;;;;2.17;0.82;;;;;;;11.71;100.00;100981.44;6295608;22;20017;-48
2021/10/12 01:34:44;;;;;;;0.20;0.20;;;;;;;11.73;100.00;100990.91;6294901;22;20649;-48
2021/10/12 01:37:47;;;;;;;1.20;0.50;;;;;;;11.74;100.00;100975.72;6296081;22;20014;-48
2021/10/12 01:40:50;;;;;;;2.83;0.52;;;;;;;11.72;100.00;100971.81;6297264;22;20737;-48
2021/10/12 01:43:53;;;;;;;0.98;0.70;;;;;;;11.64;100.00;100971.28;6298192;22;20022;-48
2021/10/12 01:46:57;;;;;;;0.63;0.63;;;;;;;11.61;100.00;100966.59;6305510;22;20241;-48
2021/10/12 01:49:59;;;;;;;2.83;0.35;;;;;;;11.56;100.00;100975.59;6310939;22;20048;-48
2021/10/12 01:53:02;;;;;;;6.75;0.55;;;;;;;11.60;100.00;100973.44;6305894;22;20366;-48
2021/10/12 01:56:06;;;;;;;0.20;0.20;;;;;;;11.68;100.00;100971.97;6297236;22;20254;-48
2021/10/12 01:59:10;;;;;;;2.15;0.60;;;;;;;11.70;100.00;100966.69;6294699;22;20018;-48
2021/10/12 02:02:13;;;;;;;6.60;0.45;;;;;;;11.69;100.00;100958.78;6293583;22;20080;-48
2021/10/12 02:05:16;;;;;;;0.50;0.40;;;;;;;11.67;100.00;100956.47;6293640;22;20405;-48
2021/10/12 02:08:19;;;;;;;6.70;1.15;;;;;;;11.67;100.00;100948.09;6294465;22;20060;-48
2021/10/12 02:11:22;;;;;;;0.45;0.45;;;;;;;11.68;100.00;100941.25;6295336;22;20018;-48
2021/10/12 02:14:27;;;;;;;9.20;1.42;;;;;;;11.74;100.00;100930.28;6296702;22;20038;-48
2021/10/12 02:17:29;;;;;;;1.02;0.57;;;;;;;11.77;100.00;100935.72;6295605;22;20371;-48
2021/10/12 02:20:32;;;;;;;1.42;0.45;;;;;;;11.75;100.00;100935.41;6295060;22;20107;-48
2021/10/12 02:23:35;;;;;;;0.90;0.68;;;;;;;11.71;100.00;100943.16;6294747;22;20017;-48
2021/10/12 02:26:39;;;;;;;6.32;0.88;;;;;;;11.68;100.00;100930.09;6296001;22;20025;-48
2021/10/12 02:29:42;;;;;;;1.48;0.77;;;;;;;11.72;100.00;100922.38;6295813;22;20086;-48
2021/10/12 02:32:45;;;;;;;0.35;0.22;;;;;;;11.73;100.00;100921.16;6295050;22;20014;-48
2021/10/12 02:35:48;;;;;;;0.65;0.55;;;;;;;11.74;100.00;100919.09;6294476;22;20064;-47
2021/10/12 02:38:52;;;;;;;6.47;0.70;;;;;;;11.78;100.00;100922.56;6294412;22;20710;-48
2021/10/12 02:41:55;;;;;;;5.07;0.88;;;;;;;11.88;100.00;100918.56;6294544;22;20219;-48
2021/10/12 02:44:58;;;;;;;0.50;0.20;;;;;;;11.92;100.00;100913.63;6294667;22;20426;-48
2021/10/12 02:48:02;;;;;;;1.65;0.63;;;;;;;11.93;100.00;100921.53;6295248;22;20013;-48
2021/10/12 02:51:05;;;;;;;5.20;0.40;;;;;;;11.90;100.00;100918.88;6294072;22;20172;-48
2021/10/12 02:54:09;;;;;;;0.90;0.43;;;;;;;11.87;100.00;100917.78;6294225;22;20536;-48
2021/10/12 02:57:11;;;;;;;5.60;1.17;;;;;;;11.84;100.00;100907.56;6295147;22;20107;-48
2021/10/12 03:00:15;;;;;;;0.95;0.57;;;;;;;11.85;100.00;100920.25;6294583;22;20114;-48
2021/10/12 03:03:18;;;;;;;5.05;0.98;;;;;;;11.85;100.00;100916.69;6296397;22;20035;-48
2021/10/12 03:06:21;;;;;;;0.80;0.57;;;;;;;11.87;100.00;100911.41;6297381;22;20026;-48
2021/10/12 03:09:24;;;;;;;1.20;0.50;;;;;;;11.87;100.00;100906.63;6297434;22;20014;-48
2021/10/12 03:12:27;;;;;;;0.68;0.60;;;;;;;11.90;100.00;100905.72;6296201;22;20017;-48
2021/10/12 03:15:30;;;;;;;0.70;0.40;;;;;;;11.96;100.00;100911.47;6298113;22;20672;-49
2021/10/12 03:18:34;;;;;;;0.57;0.57;;;;;;;11.96;100.00;100908.66;6297099;22;20630;-48
2021/10/12 03:21:43;;;;;;;0.50;0.40;;;;;;;12.01;100.00;100894.13;6277802;22;20099;-48
2021/10/12 03:24:46;;;;;;;1.00;0.60;;;;;;;12.00;100.00;100893.34;6298411;22;20375;-48
2021/10/12 03:27:50;;;;;;;0.95;0.50;;;;;;;12.06;100.00;100890.72;6299528;22;20021;-48
2021/10/12 03:30:53;;;;;;;2.85;0.82;;;;;;;11.98;100.00;100887.44;6299326;22;20017;-48
2021/10/12 03:33:56;;;;;;;0.82;0.40;;;;;;;11.93;100.00;100893.63;6297597;22;20014;-48
2021/10/12 03:37:00;;;;;;;0.35;0.32;;;;;;;11.89;100.00;100892.22;6297904;22;20017;-48
2021/10/12 03:40:04;;;;;;;1.08;0.25;;;;;;;11.88;100.00;100885.88;6297815;22;20593;-48
2021/10/12 03:43:07;;;;;;;12.32;1.85;;;;;;;11.89;100.00;100881.81;6298409;22;20380;-48
2021/10/12 03:46:12;;;;;;;1.60;0.65;;;;;;;11.89;100.00;100876.22;6296903;22;20107;-48
2021/10/12 03:49:15;;;;;;;1.25;0.57;;;;;;;11.90;100.00;100877.81;6297345;22;20339;-48
2021/10/12 03:52:18;;;;;;;0.77;0.38;;;;;;;11.90;100.00;100866.63;6297425;22;20690;-48
2021/10/12 03:55:21;;;;;;;0.50;0.30;;;;;;;11.84;100.00;100862.91;6296768;22;20534;-48
2021/10/12 03:58:24;;;;;;;0.73;0.50;;;;;;;11.84;100.00;100871.28;6296991;22;20022;-48
2021/10/12 04:01:28;;;;;;;1.42;0.50;;;;;;;11.87;100.00;100867.53;6297055;22;20034;-48
2021/10/12 04:04:31;;;;;;;1.00;0.38;;;;;;;11.86;100.00;100860.44;6296525;22;20477;-48
2021/10/12 04:07:34;;;;;;;0.65;0.65;;;;;;;11.86;100.00;100866.00;6297326;22;20018;-48
2021/10/12 04:10:37;;;;;;;1.10;0.82;;;;;;;11.90;100.00;100869.44;6296326;22;20506;-48
2021/10/12 04:13:41;;;;;;;6.70;1.38;;;;;;;11.94;100.00;100867.28;6296983;22;20200;-48
2021/10/12 04:16:43;;;;;;;1.17;0.30;;;;;;;11.96;100.00;100848.03;6297220;22;20014;-48
2021/10/12 04:19:46;;;;;;;0.60;0.45;;;;;;;12.02;100.00;100856.56;6297639;22;20037;-48
2021/10/12 04:22:50;;;;;;;0.50;0.40;;;;;;;12.01;100.00;100858.63;6296588;22;20014;-48
2021/10/12 04:25:53;;;;;;;0.30;0.30;;;;;;;12.04;100.00;100848.53;6297027;22;20100;-48
2021/10/12 04:28:56;;;;;;;0.28;0.28;;;;;;;11.93;100.00;100843.38;6295845;22;20284;-48
2021/10/12 04:32:01;;;;;;;6.65;1.25;;;;;;;11.95;100.00;100835.31;6295426;22;20014;-49
2021/10/12 04:35:05;;;;;;;1.63;0.47;;;;;;;11.99;100.00;100840.75;6296287;22;20320;-48
2021/10/12 04:38:09;;;;;;;1.02;0.65;;;;;;;11.96;100.00;100847.25;6296385;22;20034;-48
2021/10/12 04:41:12;;;;;;;2.15;0.40;;;;;;;12.00;100.00;100839.50;6294567;22;20231;-48
2021/10/12 04:44:15;;;;;;;3.60;0.57;;;;;;;12.03;100.00;100842.19;6295201;22;20102;-48
2021/10/12 04:47:21;;;;;;;0.63;0.50;;;;;;;12.01;100.00;100843.88;6294812;22;20013;-48
2021/10/12 04:50:24;;;;;;;0.55;0.55;;;;;;;12.05;100.00;100836.91;6295799;22;20031;-48
2021/10/12 04:53:28;;;;;;;0.90;0.50;;;;;;;11.95;100.00;100826.94;6295322;22;20459;-48
2021/10/12 04:56:30;;;;;;;1.40;0.43;;;;;;;12.03;100.00;100822.63;6296039;22;20425;-48
2021/10/12 04:59:34;;;;;;;2.78;0.93;;;;;;;11.90;100.00;100824.78;6295407;22;20073;-48
2021/10/12 05:02:38;;;;;;;5.82;0.75;;;;;;;11.95;100.00;100821.34;6294753;22;20471;-48
2021/10/12 05:05:41;;;;;;;0.82;0.45;;;;;;;12.02;100.00;100829.44;6295311;22;20068;-48
2021/10/12 05:08:44;;;;;;;0.57;0.57;;;;;;;12.05;100.00;100828.53;6295413;22;20021;-48
2021/10/12 05:11:47;;;;;;;5.53;0.65;;;;;;;12.07;100.00;100828.06;6295364;22;20124;-48
2021/10/12 05:14:50;;;;;;;0.32;0.32;;;;;;;12.13;100.00;100835.38;6295418;22;20025;-48
2021/10/12 05:17:54;;;;;;;2.25;0.93;;;;;;;12.21;100.00;100832.28;6295937;22;20921;-48
2021/10/12 05:20:58;;;;;;;0.98;0.55;;;;;;;12.30;100.00;100840.69;6296064;22;20017;-48
2021/10/12 05:24:01;;;;;;;0.73;0.35;;;;;;;12.34;100.00;100832.91;6296612;22;20409;-48
2021/10/12 05:27:05;;;;;;;0.95;0.60;;;;;;;12.32;100.00;100824.22;6296869;22;20017;-48
2021/10/12 05:30:11;;;;;;;0.40;0.40;;;;;;;12.37;100.00;100826.38;6296483;22;20010;-48
2021/10/12 05:33:17;;;;;;;0.75;0.75;;;;;;;12.31;100.00;100828.25;6296493;22;20323;-48
2021/10/12 05:36:20;;;;;;;6.57;0.20;;;;;;;12.25;100.00;100824.53;6297972;22;20478;-48
2021/10/12 05:39:23;;;;;;;5.55;0.63;;;;;;;12.21;100.00;100823.91;6299359;22;20018;-48
2021/10/12 05:42:26;;;;;;;0.88;0.40;;;;;;;12.17;100.00;100824.81;6300665;22;20057;-49
2021/10/12 05:45:29;;;;;;;7.78;1.15;;;;;;;12.21;100.00;100826.69;6301206;22;20021;-49
2021/10/12 05:48:33;;;;;;;0.15;0.15;;;;;;;12.16;100.00;100820.50;6303927;22;20142;-48
2021/10/12 05:51:37;;;;;;;0.20;0.20;;;;;;;12.16;100.00;100823.28;6305207;22;20033;-48
2021/10/12 05:54:46;;;;;;;8.07;1.23;;;;;;;12.21;100.00;100818.31;6311502;22;20551;-48
2021/10/12 05:58:07;;;;;;;13.35;1.95;;;;;;;12.16;100.00;100812.09;6310894;22;20099;-48
2021/10/12 06:01:11;;;;;;;11.20;2.50;;;;;;;12.14;100.00;100813.81;6299754;22;20321;-48
2021/10/12 06:04:14;;;;;;;12.60;2.15;;;;;;;12.09;100.00;100829.16;6297988;22;20052;-48
2021/10/12 06:07:18;;;;;;;5.22;2.05;;;;;;;12.10;100.00;100827.94;6298464;22;20030;-48
2021/10/12 06:10:21;;;;;;;4.50;1.10;;;;;;;12.15;100.00;100820.94;6299236;22;20082;-49
2021/10/12 06:13:24;;;;;;;3.20;0.82;;;;;;;12.18;100.00;100815.22;6298530;22;20075;-49
2021/10/12 06:16:26;;;;;;;4.07;1.15;;;;;;;12.21;100.00;100819.09;6298215;22;20064;-48
2021/10/12 06:19:30;;;;;;;3.50;0.80;;;;;;;12.24;100.00;100822.97;6297959;22;20014;-48
2021/10/12 06:22:33;;;;;;;2.85;1.02;;;;;;;12.23;100.00;100825.00;6297836;22;20078;-48
2021/10/12 06:25:36;;;;;;;1.95;1.08;;;;;;;12.35;100.00;100820.50;6297442;22;20049;-48
2021/10/12 06:28:39;;;;;;;2.63;1.08;;;;;;;12.40;100.00;100819.88;6298641;22;20114;-49
2021/10/12 06:31:42;;;;;;;7.45;1.25;;;;;;;12.45;100.00;100811.66;6298224;22;20041;-49
2021/10/12 06:34:46;;;;;;;1.52;0.63;;;;;;;12.57;100.00;100812.75;6299081;22;20005;-49
2021/10/12 06:37:50;;;;;;;8.18;1.08;;;;;;;12.61;100.00;100818.94;6297883;22;20647;-49
2021/10/12 06:40:53;;;;;;;1.10;0.68;;;;;;;12.72;100.00;100819.25;6297985;22;20018;-49
2021/10/12 06:43:57;;;;;;;0.52;0.17;;;;;;;12.75;100.00;100816.31;6297523;22;20103;-49
2021/10/12 06:47:00;;;;;;;5.13;1.55;;;;;;;12.79;100.00;100824.53;6296910;22;20018;-49
2021/10/12 06:50:03;;;;;;;2.38;0.88;;;;;;;12.83;100.00;100813.97;6277254;22;20017;-47
2021/10/12 06:53:07;;;;;;;0.25;0.17;;;;;;;12.87;100.00;100817.38;6296096;22;20367;-47
2021/10/12 06:56:10;;;;;;;9.10;0.75;;;;;;;12.89;100.00;100831.66;6297010;22;21003;-47
2021/10/12 06:59:13;;;;;;;3.83;0.70;;;;;;;12.97;100.00;100827.31;6296512;22;21173;-47
2021/10/12 07:02:16;;;;;;;8.20;0.32;;;;;;;13.03;100.00;100825.44;6295911;22;20022;-47
2021/10/12 07:05:19;;;;;;;2.35;0.65;;;;;;;13.07;100.00;100834.47;6296202;22;20103;-47
2021/10/12 07:08:23;;;;;;;0.90;0.30;;;;;;;13.11;100.00;100823.91;6297197;22;20018;-47
2021/10/12 07:11:26;;;;;;;6.53;0.52;;;;;;;13.12;100.00;100833.84;6296598;22;21039;-47
2021/10/12 07:14:30;;;;;;;5.70;0.60;;;;;;;13.11;100.00;100829.50;6297460;22;20041;-48
2021/10/12 07:17:33;;;;;;;4.72;0.32;;;;;;;13.18;100.00;100829.19;6296104;22;20017;-47
2021/10/12 07:20:39;;;;;;;2.45;1.42;;;;;;;13.27;100.00;100833.97;6296801;22;20022;-48
2021/10/12 07:23:42;;;;;;;2.28;0.38;;;;;;;13.31;100.00;100838.16;6297850;22;20374;-49
2021/10/12 07:26:46;;;;;;;2.05;1.15;;;;;;;13.39;100.00;100836.56;6297815;22;20344;-46
2021/10/12 07:29:50;;;;;;;3.45;0.65;;;;;;;13.45;100.00;100820.69;6298879;22;20014;-47
2021/10/12 07:32:53;;;;;;;2.63;0.60;;;;;;;13.54;100.00;100837.44;6301655;22;20049;-46
2021/10/12 07:35:56;;;;;;;3.92;0.50;;;;;;;13.59;100.00;100845.22;6299443;22;20042;-47
2021/10/12 07:38:59;;;;;;;0.43;0.35;;;;;;;13.66;100.00;100841.31;6299945;22;20466;-47
2021/10/12 07:42:05;;;;;;;1.08;0.60;;;;;;;13.71;100.00;100843.44;6300337;22;20068;-47
2021/10/12 07:45:09;;;;;;;3.80;1.00;;;;;;;13.80;100.00;100828.63;6299319;22;20022;-47
2021/10/12 07:48:12;;;;;;;0.63;0.43;;;;;;;13.93;100.00;100831.97;6298717;22;20033;-47
2021/10/12 07:51:15;;;;;;;1.42;0.50;;;;;;;14.02;100.00;100829.91;6298665;22;20022;-47
2021/10/12 07:54:26;;;;;;;0.47;0.45;;;;;;;14.07;100.00;100825.69;6297106;22;20033;-47
2021/10/12 07:57:29;;;;;;;0.17;0.17;;;;;;;14.13;100.00;100829.38;6298019;22;20046;-47
2021/10/12 08:00:32;;;;;;;0.60;0.47;;;;;;;14.18;100.00;100825.94;6297632;22;20493;-47
2021/10/12 08:03:36;;;;;;;3.03;0.75;;;;;;;14.23;100.00;100822.47;6299074;22;20140;-47
2021/10/12 08:06:39;;;;;;;0.47;0.30;;;;;;;14.30;100.00;100827.75;6298789;22;20794;-47
2021/10/12 08:09:42;;;;;;;1.65;0.57;;;;;;;14.34;100.00;100831.13;6298591;22;20054;-48
2021/10/12 08:12:47;;;;;;;0.93;0.47;;;;;;;14.38;100.00;100834.53;6297908;22;20069;-48
2021/10/12 08:15:55;;;;;;;1.35;0.30;;;;;;;14.40;100.00;100815.22;6297369;22;20107;-48
2021/10/12 08:18:59;;;;;;;6.13;0.85;;;;;;;14.43;100.00;100823.44;6297391;22;20451;-48
2021/10/12 08:22:03;;;;;;;5.25;0.77;;;;;;;14.46;100.00;100820.94;6297909;22;20724;-48
2021/10/12 08:25:08;;;;;;;1.80;0.32;;;;;;;14.53;100.00;100824.13;6297164;22;20147;-48
2021/10/12 08:28:11;;;;;;;1.10;0.40;;;;;;;14.57;100.00;100807.94;6298685;22;20017;-48
2021/10/12 08:31:14;;;;;;;2.10;0.88;;;;;;;14.58;100.00;100815.06;6297966;22;20343;-48
2021/10/12 08:34:18;;;;;;;0.95;0.50;;;;;;;14.64;100.00;100801.94;6296629;22;20479;-48
2021/10/12 08:37:21;;;;;;;0.82;0.40;;;;;;;14.69;100.00;100808.91;6297828;22;20033;-48
2021/10/12 08:40:24;;;;;;;9.32;0.60;;;;;;;14.76;100.00;100792.50;6296773;22;20060;-48
2021/10/12 08:43:30;;;;;;;4.07;0.68;;;;;;;14.92;100.00;100810.88;6278657;22;20077;-48
2021/10/12 08:46:35;;;;;;;1.75;0.88;;;;;;;14.91;100.00;100806.50;6297476;22;20201;-48
2021/10/12 08:49:38;;;;;;;1.90;0.60;;;;;;;14.95;100.00;100809.91;6297133;22;20427;-48
2021/10/12 08:52:44;;;;;;;1.55;0.45;;;;;;;14.97;100.00;100813.78;6297908;22;20037;-48
2021/10/12 08:55:47;;;;;;;1.33;0.98;;;;;;;14.96;100.00;100820.66;6297502;22;20398;-49
2021/10/12 08:58:50;;;;;;;1.08;0.47;;;;;;;14.93;100.00;100818.81;6297632;22;20029;-48
2021/10/12 09:01:58;;;;;;;0.30;0.30;;;;;;;14.89;100.00;100821.03;6298569;22;20092;-48
2021/10/12 09:05:02;;;;;;;6.40;1.65;;;;;;;14.90;100.00;100814.16;6278167;22;20111;-49
2021/10/12 09:08:05;;;;;;;1.85;1.20;;;;;;;14.88;100.00;100808.25;6295175;22;20088;-49
2021/10/12 09:11:23;;;;;;;1.20;0.75;;;;;;;14.91;100.00;100810.09;6295652;22;20168;-49
2021/10/12 09:14:26;;;;;;;3.80;1.45;;;;;;;14.98;100.00;100820.94;6296201;22;20450;-49
2021/10/12 09:17:35;;;;;;;5.53;0.65;;;;;;;15.01;100.00;100819.97;6295605;22;20288;-48
2021/10/12 09:20:37;;;;;;;6.15;1.00;;;;;;;15.11;100.00;100818.63;6298051;22;20017;-49
2021/10/12 09:23:41;;;;;;;1.33;0.73;;;;;;;15.23;100.00;100818.81;6298076;22;20076;-49
2021/10/12 09:26:50;;;;;;;1.15;0.57;;;;;;;15.35;100.00;100812.13;6297534;22;20661;-48
2021/10/12 09:30:06;;;;;;;0.43;0.43;;;;;;;15.60;100.00;100811.53;6298459;22;20017;-48
2021/10/12 09:33:09;;;;;;;0.68;0.38;;;;;;;15.80;100.00;100803.19;6297610;22;20040;-49
2021/10/12 09:36:31;;;;;;;4.22;0.35;;;;;;;15.73;100.00;100812.00;6299571;22;20014;-49
2021/10/12 09:39:45;;;;;;;6.45;1.13;;;;;;;15.77;100.00;100802.09;6300749;22;20025;-48
2021/10/12 09:42:48;;;;;;;1.85;0.75;;;;;;;15.83;100.00;100805.00;6304643;22;20075;-49
2021/10/12 09:45:51;;;;;;;6.85;0.95;;;;;;;15.86;100.00;100806.84;6303758;22;20021;-48
2021/10/12 09:48:54;;;;;;;0.50;0.30;;;;;;;15.90;100.00;100807.41;6308100;22;20017;-48
2021/10/12 09:52:00;;;;;;;2.05;0.98;;;;;;;15.98;100.00;100800.13;6313468;22;20053;-48
2021/10/12 09:55:03;;;;;;;0.63;0.30;;;;;;;16.14;100.00;100793.94;6318271;22;20026;-48
2021/10/12 09:58:08;;;;;;;1.77;0.28;;;;;;;16.16;100.00;100801.88;6312657;22;20367;-48
2021/10/12 10:01:11;;;;;;;2.63;0.70;;;;;;;16.04;100.00;100809.41;6303658;22;20021;-50
2021/10/12 10:04:19;;;;;;;2.00;0.90;;;;;;;16.01;100.00;100803.97;6300813;22;20389;-49
2021/10/12 10:07:46;;;;;;;0.40;0.20;;;;;;;16.14;100.00;100808.00;6300242;22;20097;-49
2021/10/12 10:10:49;;;;;;;2.63;0.68;;;;;;;16.08;100.00;100812.00;6300909;22;20034;-49
2021/10/12 10:13:54;;;;;;;0.85;0.32;;;;;;;16.08;100.00;100812.00;6300493;22;20367;-49
2021/10/12 10:17:01;;;;;;;0.50;0.30;;;;;;;16.11;100.00;100809.00;6300374;22;20394;-49
2021/10/12 10:20:06;;;;;;;2.10;0.45;;;;;;;16.04;100.00;100809.41;6299590;22;20079;-49
2021/10/12 10:23:09;;;;;;;4.95;0.75;;;;;;;16.07;100.00;100814.03;6299415;22;20506;-49
2021/10/12 10:26:30;;;;;;;2.22;0.30;;;;;;;16.08;100.00;100815.56;6302913;22;20112;-50
2021/10/12 10:29:36;;;;;;;1.03;0.30;;;;;;;16.00;100.00;100813.66;6300722;22;20071;-50
2021/10/12 10:32:49;;;;;;;0.10;0.00;;;;;;;16.01;100.00;100815.19;6301135;22;20068;-50
2021/10/12 10:35:59;;;;;;;0.63;0.30;;;;;;;15.88;100.00;100812.72;6300837;22;20094;-49
2021/10/12 10:39:03;;;;;;;1.55;0.40;;;;;;;16.04;100.00;100803.78;6299793;22;20069;-49
2021/10/12 10:42:09;;;;;;;2.35;0.77;;;;;;;16.29;100.00;100797.44;6282486;22;20017;-49
2021/10/12 10:45:12;;;;;;;2.40;0.50;;;;;;;16.52;100.00;100804.16;6301627;22;20564;-50
2021/10/12 10:48:19;;;;;;;0.35;0.22;;;;;;;16.39;100.00;100807.31;6301070;22;20112;-50
2021/10/12 10:51:22;;;;;;;0.50;0.20;;;;;;;16.40;100.00;100803.22;6301371;22;20010;-50
2021/10/12 10:54:58;;;;;;;0.20;0.10;;;;;;;16.28;100.00;100812.00;6300688;22;20125;-49
2021/10/12 10:58:06;;;;;;;0.15;0.10;;;;;;;16.29;100.00;100805.88;6301915;22;20199;-49
2021/10/12 11:01:34;;;;;;;0.75;0.63;;;;;;;16.41;100.00;100789.94;6301658;22;20068;-50
2021/10/12 11:04:47;;;;;;;0.10;0.10;;;;;;;16.52;100.00;100790.84;6298697;22;20026;-50
2021/10/12 11:08:07;;;;;;;0.20;0.20;;;;;;;16.62;100.00;100797.88;6267160;22;20256;-50
2021/10/12 11:11:11;;;;;;;0.38;0.10;;;;;;;16.57;100.00;100801.41;6279248;22;20079;-50
2021/10/12 11:14:29;;;;;;;0.15;0.10;;;;;;;16.30;100.00;100804.63;6300196;22;20470;-50
2021/10/12 11:17:34;;;;;;;0.35;0.13;;;;;;;16.08;100.00;100798.72;6297076;22;20049;-50
2021/10/12 11:20:50;;;;;;;0.20;0.00;;;;;;;16.05;100.00;100805.31;6298456;22;20098;-49
2021/10/12 11:23:57;;;;;;;2.17;0.40;;;;;;;16.17;100.00;100800.63;6283225;22;20009;-50
2021/10/12 11:27:00;;;;;;;0.75;0.15;;;;;;;15.98;100.00;100800.13;6301930;22;20540;-50
2021/10/12 11:30:09;;;;;;;0.10;0.10;;;;;;;15.93;100.00;100798.78;6285580;22;20068;-50
2021/10/12 11:33:13;;;;;;;0.93;0.68;;;;;;;16.03;100.00;100802.22;6303589;22;20324;-50
2021/10/12 11:36:19;;;;;;;0.25;0.25;;;;;;;15.99;100.00;100793.22;6303753;22;20082;-50
2021/10/12 11:39:25;;;;;;;1.70;0.50;;;;;;;16.00;100.00;100803.22;6303431;22;20017;-50
2021/10/12 11:42:30;;;;;;;0.85;0.30;;;;;;;16.09;100.00;100797.44;6303311;22;20532;-50
2021/10/12 11:45:33;;;;;;;3.58;0.30;;;;;;;16.18;100.00;100797.31;6302932;22;20128;-50
2021/10/12 11:48:40;;;;;;;1.30;0.45;;;;;;;16.29;100.00;100791.84;6305069;22;20459;-50
2021/10/12 11:51:45;;;;;;;0.52;0.10;;;;;;;16.45;100.00;100794.09;6304573;22;20722;-50
2021/10/12 11:55:11;;;;;;;1.88;0.30;;;;;;;16.53;100.00;100788.81;6304755;22;20405;-50
2021/10/12 11:58:16;;;;;;;0.73;0.35;;;;;;;16.46;100.00;100790.00;6304004;22;20049;-50
2021/10/12 12:01:42;;;;;;;0.73;0.30;;;;;;;16.48;100.00;100798.69;6304608;22;20350;-50
2021/10/12 12:04:50;;;;;;;1.23;0.60;;;;;;;16.45;100.00;100799.72;6284986;22;20022;-50
2021/10/12 12:07:55;;;;;;;0.38;0.32;;;;;;;16.43;100.00;100799.44;6284776;22;20017;-51
2021/10/12 12:11:00;;;;;;;1.75;0.40;;;;;;;16.48;100.00;100798.69;6303525;22;20049;-51
2021/10/12 12:14:04;;;;;;;4.32;1.58;;;;;;;16.42;100.00;100789.44;6303482;22;20099;-51
2021/10/12 12:17:18;;;;;;;0.20;0.10;;;;;;;16.44;100.00;100780.50;6284461;22;20064;-51
2021/10/12 12:20:22;;;;;;;0.17;0.10;;;;;;;16.49;100.00;100797.44;6301850;22;20054;-51
2021/10/12 12:23:34;;;;;;;2.05;0.63;;;;;;;16.48;100.00;100789.50;6304380;22;20017;-51
2021/10/12 12:26:38;;;;;;;0.10;0.10;;;;;;;16.43;100.00;100779.75;6285385;22;20064;-51
2021/10/12 12:29:40;;;;;;;1.55;0.40;;;;;;;16.36;100.00;100774.53;6302944;22;20050;-51
2021/10/12 12:32:58;;;;;;;6.00;0.50;;;;;;;16.42;100.00;100772.56;6297995;22;20068;-51
2021/10/12 12:36:04;;;;;;;0.50;0.10;;;;;;;16.41;100.00;100775.88;6299647;22;20529;-51
2021/10/12 12:39:09;;;;;;;1.17;0.13;;;;;;;16.40;100.00;100774.31;6279885;22;20045;-51
2021/10/12 12:42:38;;;;;;;0.20;0.10;;;;;;;16.49;100.00;100763.72;6298441;22;20021;-51
2021/10/12 12:45:41;;;;;;;0.10;0.10;;;;;;;16.44;100.00;100764.41;6297256;22;20021;-51
2021/10/12 12:48:48;;;;;;;0.40;0.13;;;;;;;16.27;100.00;100771.88;6279673;22;20072;-51
2021/10/12 12:51:52;;;;;;;0.43;0.22;;;;;;;16.20;100.00;100766.66;6297527;22;20452;-51
2021/10/12 12:54:58;;;;;;;0.50;0.13;;;;;;;16.24;100.00;100767.22;6300968;22;20018;-51
2021/10/12 12:58:04;;;;;;;0.95;0.40;;;;;;;16.30;100.00;100772.94;6303132;22;20018;-51
2021/10/12 13:01:13;;;;;;;1.27;0.30;;;;;;;16.34;100.00;100770.69;6302261;22;20017;-51
2021/10/12 13:04:16;;;;;;;0.68;0.35;;;;;;;16.40;100.00;100774.31;6284009;22;20365;-51
2021/10/12 13:07:22;;;;;;;0.20;0.20;;;;;;;16.38;100.00;100771.22;6302789;22;20490;-51
2021/10/12 13:10:26;;;;;;;0.20;0.20;;;;;;;16.35;100.00;100770.19;6303036;22;20540;-52
2021/10/12 13:13:30;;;;;;;0.15;0.10;;;;;;;16.29;100.00;100774.19;6302174;22;20486;-51
2021/10/12 13:16:34;;;;;;;2.30;0.30;;;;;;;16.36;100.00;100762.53;6301343;22;20014;-51
2021/10/12 13:19:40;;;;;;;5.28;0.98;;;;;;;16.30;100.00;100770.13;6301660;22;20076;-51
2021/10/12 13:22:46;;;;;;;0.45;0.10;;;;;;;16.27;100.00;100771.09;6302533;22;20502;-51
2021/10/12 13:25:51;;;;;;;1.15;0.30;;;;;;;16.27;100.00;100760.63;6282321;22;20285;-51
2021/10/12 13:28:57;;;;;;;0.20;0.15;;;;;;;16.33;100.00;100764.28;6301846;22;20072;-51
2021/10/12 13:32:12;;;;;;;0.28;0.10;;;;;;;16.33;100.00;100764.28;6305545;22;20115;-52
2021/10/12 13:35:36;;;;;;;0.30;0.25;;;;;;;16.32;100.00;100759.16;6288666;22;20018;-51
2021/10/12 13:38:42;;;;;;;1.52;0.30;;;;;;;16.23;100.00;100760.06;6287434;22;20100;-52
2021/10/12 13:41:46;;;;;;;2.83;0.90;;;;;;;16.26;100.00;100759.09;6307471;22;20470;-51
2021/10/12 13:44:52;;;;;;;1.85;0.22;;;;;;;16.21;100.00;100762.59;6287757;22;20099;-51
2021/10/12 13:47:55;;;;;;;0.80;0.10;;;;;;;16.13;100.00;100761.50;6287795;22;20477;-51
2021/10/12 13:51:05;;;;;;;0.35;0.10;;;;;;;16.00;100.00;100763.09;6310052;22;20083;-50
2021/10/12 13:54:19;;;;;;;0.43;0.30;;;;;;;15.89;100.00;100767.31;6313635;22;20076;-51
2021/10/12 13:57:33;;;;;;;0.10;0.10;;;;;;;15.84;100.00;100761.59;6300421;22;20312;-51
2021/10/12 14:00:39;;;;;;;0.45;0.28;;;;;;;15.83;100.00;100766.44;6296640;22;20045;-50
2021/10/12 14:03:43;;;;;;;0.63;0.10;;;;;;;15.93;100.00;100764.28;6312995;22;20018;-51
2021/10/12 14:06:47;;;;;;;1.55;0.40;;;;;;;16.02;100.00;100764.16;6314153;22;20030;-50
2021/10/12 14:09:50;;;;;;;3.97;0.77;;;;;;;16.14;100.00;100757.41;6309779;22;20053;-50
2021/10/12 14:12:53;;;;;;;3.30;1.27;;;;;;;16.17;100.00;100764.88;6302910;22;20824;-48